Maputo, Mozambique
Current Conditions -  °F | °C
As of 8:00 PM on Thursday 30 Oct 2014 (Local Time) from FQMA Reporting Station
Scattered Clouds Scattered Clouds  
Wind Chill: 75°   Ceiling: Unl
Heat Index: 75°   Visibility: 6mi
Dew Point: 70°   Wind: 13mph
Humidity: 83%   Direction: 100°E
Pressure: 29.88"   Gusts: NA
Location:  25.95°S, 32.57°E
Report Text: FQMA 301800Z 10011KT 9999 SCT020 24/21 Q1012 NOSIG
Loading
Personal Weather Stations






























Interactive Weather Map
Tropical Storm Tracking
New forecast layout! Learn more

10-Day Weather Forecast

Advertisements
Track Severe Weather on mobile